createdAt,value
2016-06-21T00:00:05.542Z,0
2016-06-21T00:01:06.185Z,0
2016-06-21T00:02:06.410Z,0
2016-06-21T00:03:06.135Z,0
2016-06-21T00:04:05.488Z,0
2016-06-21T00:05:04.817Z,0
2016-06-21T00:06:06.091Z,0
2016-06-21T00:07:04.786Z,0
2016-06-21T00:08:06.074Z,0
2016-06-21T00:09:05.422Z,0
2016-06-21T00:10:05.392Z,0
2016-06-21T00:11:06.033Z,0
2016-06-21T00:12:06.021Z,0
2016-06-21T00:13:05.368Z,0
2016-06-21T00:14:06.006Z,0
2016-06-21T00:15:05.336Z,0
2016-06-21T00:16:05.976Z,0
2016-06-21T00:17:05.321Z,0
2016-06-21T00:18:05.319Z,0
2016-06-21T00:19:05.296Z,0
2016-06-21T00:20:05.262Z,0
2016-06-21T00:21:05.916Z,0
2016-06-21T00:22:05.279Z,0
2016-06-21T00:23:05.232Z,0
2016-06-21T00:24:05.239Z,0
2016-06-21T00:25:04.592Z,0
2016-06-21T00:26:05.189Z,0
2016-06-21T00:27:05.192Z,0
2016-06-21T00:28:05.828Z,0
2016-06-21T00:29:05.782Z,0
2016-06-21T00:30:05.802Z,0
2016-06-21T00:31:05.130Z,0
2016-06-21T00:32:05.758Z,0
2016-06-21T00:33:05.105Z,0
2016-06-21T00:34:05.094Z,0
2016-06-21T00:35:05.738Z,0
2016-06-21T00:36:05.749Z,0
2016-06-21T00:37:05.728Z,0
2016-06-21T00:38:05.686Z,0
2016-06-21T00:39:05.033Z,0
2016-06-21T00:40:04.371Z,0
2016-06-21T00:41:04.992Z,0
2016-06-21T00:42:04.345Z,0
2016-06-21T00:43:04.977Z,0
2016-06-21T00:44:04.942Z,0
2016-06-21T00:45:04.966Z,0
2016-06-21T00:46:04.921Z,0
2016-06-21T00:47:04.290Z,0
2016-06-21T00:48:05.556Z,0
2016-06-21T00:49:05.558Z,0
2016-06-21T00:50:05.517Z,0
2016-06-21T00:51:05.509Z,0
2016-06-21T00:52:04.846Z,0
2016-06-21T00:53:05.486Z,0
2016-06-21T00:54:05.467Z,0
2016-06-21T00:55:04.810Z,0
2016-06-21T00:56:04.812Z,0
2016-06-21T00:57:04.148Z,0
2016-06-21T00:58:05.410Z,0
2016-06-21T00:59:04.760Z,0
2016-06-21T01:00:05.402Z,0
2016-06-21T01:01:04.726Z,0
2016-06-21T01:02:05.361Z,0
2016-06-21T01:03:05.357Z,0
2016-06-21T01:04:04.688Z,0
2016-06-21T01:05:04.039Z,0
2016-06-21T01:06:05.310Z,0
2016-06-21T01:07:04.665Z,0
2016-06-21T01:08:04.655Z,0
2016-06-21T01:09:05.283Z,0
2016-06-21T01:10:05.259Z,0
2016-06-21T01:11:04.638Z,0
2016-06-21T01:12:05.230Z,0
2016-06-21T01:13:05.220Z,0
2016-06-21T01:14:05.195Z,0
2016-06-21T01:15:04.561Z,0
2016-06-21T01:16:05.181Z,0
2016-06-21T01:17:05.175Z,0
2016-06-21T01:18:04.519Z,0
2016-06-21T01:19:03.870Z,0
2016-06-21T01:20:04.495Z,0
2016-06-21T01:21:05.103Z,0
2016-06-21T01:22:05.118Z,0
2016-06-21T01:23:03.811Z,0
2016-06-21T01:24:05.065Z,0
2016-06-21T01:25:03.773Z,0
2016-06-21T01:26:05.044Z,0
2016-06-21T01:27:04.389Z,0
2016-06-21T01:28:04.381Z,0
2016-06-21T01:29:03.715Z,0
2016-06-21T01:30:04.988Z,0
2016-06-21T01:31:04.983Z,0
2016-06-21T01:32:04.333Z,0
2016-06-21T01:33:04.976Z,0
2016-06-21T01:34:04.275Z,0
2016-06-21T01:35:04.937Z,0
2016-06-21T01:36:04.925Z,0
2016-06-21T01:37:04.949Z,0
2016-06-21T01:38:04.235Z,0
2016-06-21T01:39:04.909Z,0
2016-06-21T01:40:04.221Z,0
2016-06-21T01:41:04.842Z,0
2016-06-21T01:42:04.197Z,0
2016-06-21T01:43:04.182Z,0
2016-06-21T01:44:04.166Z,0
2016-06-21T01:45:04.792Z,0
2016-06-21T01:46:04.134Z,0
2016-06-21T01:47:04.742Z,0
2016-06-21T01:48:04.751Z,0
2016-06-21T01:49:04.095Z,0
2016-06-21T01:50:04.750Z,0
2016-06-21T01:51:04.715Z,0
2016-06-21T01:52:04.042Z,0
2016-06-21T01:53:04.036Z,0
2016-06-21T01:54:04.699Z,0
2016-06-21T01:55:03.395Z,0
2016-06-21T01:56:03.995Z,0
2016-06-21T01:57:04.006Z,0
2016-06-21T01:58:03.985Z,0
2016-06-21T01:59:04.593Z,0
2016-06-21T02:00:03.957Z,0
2016-06-21T02:01:03.302Z,0
2016-06-21T02:02:04.570Z,0
2016-06-21T02:03:04.553Z,0
2016-06-21T02:04:04.532Z,0
2016-06-21T02:05:04.525Z,0
2016-06-21T02:06:03.871Z,0
2016-06-21T02:07:03.213Z,0
2016-06-21T02:08:04.460Z,0
2016-06-21T02:09:04.462Z,0
2016-06-21T02:10:04.449Z,0
2016-06-21T02:11:03.178Z,0
2016-06-21T02:12:02.524Z,0
2016-06-21T02:13:03.783Z,0
2016-06-21T02:14:03.764Z,0
2016-06-21T02:15:03.741Z,0
2016-06-21T02:16:03.725Z,0
2016-06-21T02:17:03.711Z,0
2016-06-21T02:18:04.375Z,0
2016-06-21T02:19:03.723Z,0
2016-06-21T02:20:03.690Z,0
2016-06-21T02:21:03.689Z,0
2016-06-21T02:22:03.035Z,0
2016-06-21T02:23:04.270Z,0
2016-06-21T02:24:03.633Z,0
2016-06-21T02:25:03.621Z,0
2016-06-21T02:26:03.591Z,0
2016-06-21T02:27:03.602Z,0
2016-06-21T02:28:04.222Z,0
2016-06-21T02:29:03.557Z,0
2016-06-21T02:30:03.568Z,0
2016-06-21T02:31:04.182Z,0
2016-06-21T02:32:04.155Z,0
2016-06-21T02:33:04.150Z,0
2016-06-21T02:34:03.533Z,0
2016-06-21T02:35:04.120Z,0
2016-06-21T02:36:04.100Z,0
2016-06-21T02:37:04.109Z,0
2016-06-21T02:38:04.075Z,0
2016-06-21T02:39:02.810Z,0
2016-06-21T02:40:04.056Z,0
2016-06-21T02:41:03.408Z,0
2016-06-21T02:42:03.398Z,0
2016-06-21T02:43:04.061Z,0
2016-06-21T02:44:04.014Z,0
2016-06-21T02:45:03.349Z,0
2016-06-21T02:46:03.965Z,0
2016-06-21T02:47:03.960Z,0
2016-06-21T02:48:03.306Z,0
2016-06-21T02:49:03.951Z,0
2016-06-21T02:50:03.275Z,0
2016-06-21T02:51:03.268Z,0
2016-06-21T02:52:03.257Z,0
2016-06-21T02:53:03.256Z,0
2016-06-21T02:54:03.869Z,0
2016-06-21T02:55:03.852Z,0
2016-06-21T02:56:03.846Z,0
2016-06-21T02:57:03.191Z,0
2016-06-21T02:58:01.923Z,0
2016-06-21T02:59:02.516Z,0
2016-06-21T03:00:03.174Z,0
2016-06-21T03:01:02.519Z,0
2016-06-21T03:02:03.130Z,0
2016-06-21T03:03:03.754Z,0
2016-06-21T03:04:03.726Z,0
2016-06-21T03:05:03.081Z,0
2016-06-21T03:06:03.054Z,0
2016-06-21T03:07:03.710Z,0
2016-06-21T03:08:03.685Z,0
2016-06-21T03:09:03.667Z,0
2016-06-21T03:10:03.663Z,0
2016-06-21T03:11:03.647Z,0
2016-06-21T03:12:01.730Z,0
2016-06-21T03:13:03.614Z,0
2016-06-21T03:14:03.618Z,0
2016-06-21T03:15:03.601Z,0
2016-06-21T03:16:02.972Z,0
2016-06-21T03:17:01.644Z,0
2016-06-21T03:18:02.919Z,0
2016-06-21T03:19:03.549Z,0
2016-06-21T03:20:03.539Z,0
2016-06-21T03:21:02.248Z,0
2016-06-21T03:22:02.222Z,0
2016-06-21T03:23:02.857Z,0
2016-06-21T03:24:02.834Z,0
2016-06-21T03:25:02.198Z,0
2016-06-21T03:26:03.434Z,0
2016-06-21T03:27:03.416Z,0
2016-06-21T03:28:02.770Z,0
2016-06-21T03:29:03.411Z,0
2016-06-21T03:30:02.127Z,0
2016-06-21T03:31:02.097Z,0
2016-06-21T03:32:03.361Z,0
2016-06-21T03:33:03.362Z,0
2016-06-21T03:34:03.331Z,0
2016-06-21T03:35:03.330Z,0
2016-06-21T03:36:02.678Z,0
2016-06-21T03:37:03.288Z,0
2016-06-21T03:38:02.671Z,0
2016-06-21T03:39:02.012Z,0
2016-06-21T03:40:03.243Z,0
2016-06-21T03:41:03.248Z,0
2016-06-21T03:42:03.230Z,0
2016-06-21T03:43:02.580Z,0
2016-06-21T03:44:02.564Z,0
2016-06-21T03:45:02.559Z,0
2016-06-21T03:46:03.179Z,0
2016-06-21T03:47:03.147Z,0
2016-06-21T03:48:03.162Z,0
2016-06-21T03:49:02.499Z,0
2016-06-21T03:50:03.113Z,0
2016-06-21T03:51:02.475Z,0
2016-06-21T03:52:02.462Z,0
2016-06-21T03:53:03.076Z,0
2016-06-21T03:54:03.069Z,0
2016-06-21T03:55:03.071Z,0
2016-06-21T03:56:03.042Z,0
2016-06-21T03:57:03.036Z,0
2016-06-21T03:58:02.374Z,0
2016-06-21T03:59:03.004Z,0
2016-06-21T04:00:01.717Z,0
2016-06-21T04:01:02.350Z,0
2016-06-21T04:02:02.318Z,0
2016-06-21T04:03:01.674Z,0
2016-06-21T04:04:02.327Z,0
2016-06-21T04:05:02.932Z,0
2016-06-21T04:06:02.898Z,0
2016-06-21T04:07:02.269Z,0
2016-06-21T04:08:02.245Z,0
2016-06-21T04:09:02.243Z,0
2016-06-21T04:10:02.875Z,0
2016-06-21T04:11:02.841Z,0
2016-06-21T04:12:02.829Z,0
2016-06-21T04:13:02.187Z,0
2016-06-21T04:14:02.805Z,0
2016-06-21T04:15:02.147Z,0
2016-06-21T04:16:02.137Z,0
2016-06-21T04:17:02.108Z,0
2016-06-21T04:18:02.738Z,0
2016-06-21T04:19:02.731Z,0
2016-06-21T04:20:02.753Z,0
2016-06-21T04:21:02.084Z,0
2016-06-21T04:22:02.056Z,0
2016-06-21T04:23:02.693Z,0
2016-06-21T04:24:02.655Z,0
2016-06-21T04:25:02.655Z,0
2016-06-21T04:26:02.638Z,0
2016-06-21T04:27:01.993Z,0
2016-06-21T04:28:01.965Z,0
2016-06-21T04:29:02.605Z,0
2016-06-21T04:30:02.590Z,0
2016-06-21T04:31:01.930Z,0
2016-06-21T04:32:01.918Z,0
2016-06-21T04:33:01.906Z,0
2016-06-21T04:34:02.537Z,0
2016-06-21T04:35:02.520Z,0
2016-06-21T04:36:02.517Z,0
2016-06-21T04:37:01.851Z,0
2016-06-21T04:38:02.481Z,0
2016-06-21T04:39:02.473Z,0
2016-06-21T04:40:01.807Z,0
2016-06-21T04:41:02.441Z,0
2016-06-21T04:42:02.441Z,0
2016-06-21T04:43:01.126Z,0
2016-06-21T04:44:01.757Z,0
2016-06-21T04:45:01.751Z,4
2016-06-21T04:46:01.726Z,4
2016-06-21T04:47:02.365Z,0
2016-06-21T04:48:01.714Z,4
2016-06-21T04:49:01.691Z,4
2016-06-21T04:50:02.327Z,4
2016-06-21T04:51:01.026Z,8
2016-06-21T04:52:01.013Z,4
2016-06-21T04:53:02.269Z,8
2016-06-21T04:54:00.998Z,8
2016-06-21T04:55:01.617Z,12
2016-06-21T04:56:00.309Z,16
2016-06-21T04:57:01.582Z,16
2016-06-21T04:58:02.220Z,16
2016-06-21T04:59:02.209Z,24
2016-06-21T05:00:01.553Z,28
2016-06-21T05:01:01.526Z,32
2016-06-21T05:02:02.147Z,36
2016-06-21T05:03:02.145Z,44
2016-06-21T05:04:01.494Z,48
2016-06-21T05:05:01.472Z,56
2016-06-21T05:06:01.465Z,64
2016-06-21T05:07:01.446Z,76
2016-06-21T05:08:00.785Z,84
2016-06-21T05:09:00.790Z,92
2016-06-21T05:10:01.422Z,104
2016-06-21T05:11:02.046Z,116
2016-06-21T05:12:01.375Z,128
2016-06-21T05:13:02.021Z,140
2016-06-21T05:14:01.995Z,156
2016-06-21T05:15:00.702Z,168
2016-06-21T05:16:01.974Z,184
2016-06-21T05:17:01.958Z,200
2016-06-21T05:18:01.301Z,220
2016-06-21T05:19:01.289Z,236
2016-06-21T05:20:01.269Z,252
2016-06-21T05:21:01.898Z,268
2016-06-21T05:22:01.241Z,288
2016-06-21T05:23:00.594Z,308
2016-06-21T05:24:00.591Z,328
2016-06-21T05:25:01.835Z,344
2016-06-21T05:26:01.190Z,364
2016-06-21T05:27:00.545Z,388
2016-06-21T05:28:01.177Z,404
2016-06-21T05:29:01.155Z,424
2016-06-21T05:30:01.178Z,444
2016-06-21T05:31:01.103Z,468
2016-06-21T05:32:01.767Z,488
2016-06-21T05:33:01.103Z,512
2016-06-21T05:34:01.073Z,536
2016-06-21T05:35:01.062Z,552
2016-06-21T05:36:00.411Z,576
2016-06-21T05:37:01.041Z,592
2016-06-21T05:38:01.038Z,612
2016-06-21T05:39:01.042Z,632
2016-06-21T05:40:01.634Z,656
2016-06-21T05:41:01.618Z,672
2016-06-21T05:42:00.335Z,692
2016-06-21T05:43:00.957Z,712
2016-06-21T05:44:01.587Z,728
2016-06-21T05:45:01.581Z,744
2016-06-21T05:46:00.920Z,760
2016-06-21T05:47:00.892Z,780
2016-06-21T05:48:00.895Z,796
2016-06-21T05:49:00.870Z,816
2016-06-21T05:50:00.873Z,828
2016-06-21T05:51:01.496Z,840
2016-06-21T05:52:01.487Z,856
2016-06-21T05:53:01.454Z,872
2016-06-21T05:54:00.802Z,884
2016-06-21T05:55:01.428Z,904
2016-06-21T05:56:01.398Z,916
2016-06-21T05:57:01.404Z,932
2016-06-21T05:58:00.759Z,948
2016-06-21T05:59:00.749Z,964
2016-06-21T06:00:00.717Z,976
2016-06-21T06:01:00.074Z,996
2016-06-21T06:02:01.345Z,1012
2016-06-21T06:03:01.318Z,1024
2016-06-21T06:04:00.685Z,1036
2016-06-21T06:05:01.327Z,1048
2016-06-21T06:06:01.293Z,1060
2016-06-21T06:07:00.641Z,1072
2016-06-21T06:08:01.263Z,1084
2016-06-21T06:09:01.250Z,1100
2016-06-21T06:10:00.582Z,1112
2016-06-21T06:11:01.213Z,1128
2016-06-21T06:12:01.211Z,1140
2016-06-21T06:13:00.544Z,1152
2016-06-21T06:14:00.555Z,1164
2016-06-21T06:15:00.511Z,1180
2016-06-21T06:16:00.489Z,1196
2016-06-21T06:17:01.132Z,1208
2016-06-21T06:18:01.105Z,1224
2016-06-21T06:19:01.107Z,1240
2016-06-21T06:20:01.080Z,1248
2016-06-21T06:21:01.097Z,1260
2016-06-21T06:22:00.418Z,1268
2016-06-21T06:23:00.395Z,1280
2016-06-21T06:24:01.043Z,1284
2016-06-21T06:25:00.373Z,1288
2016-06-21T06:26:01.000Z,1292
2016-06-21T06:27:01.006Z,1288
2016-06-21T06:28:00.349Z,1296
2016-06-21T06:29:00.339Z,1300
2016-06-21T06:30:00.939Z,1304
2016-06-21T06:31:00.945Z,1304
2016-06-21T06:32:00.270Z,1312
2016-06-21T06:33:00.923Z,1320
2016-06-21T06:33:59.611Z,1328
2016-06-21T06:35:00.249Z,1332
2016-06-21T06:36:00.861Z,1344
2016-06-21T06:37:00.851Z,1352
2016-06-21T06:38:00.237Z,1360
2016-06-21T06:39:00.188Z,1372
2016-06-21T06:40:00.802Z,1380
2016-06-21T06:41:00.788Z,1392
2016-06-21T06:42:00.139Z,1400
2016-06-21T06:43:00.764Z,1412
2016-06-21T06:43:59.473Z,1424
2016-06-21T06:45:00.112Z,1440
2016-06-21T06:46:00.078Z,1448
2016-06-21T06:47:00.757Z,1464
2016-06-21T06:48:00.073Z,1476
2016-06-21T06:49:00.696Z,1488
2016-06-21T06:50:00.042Z,1504
2016-06-21T06:51:00.672Z,1516
2016-06-21T06:51:59.994Z,1532
2016-06-21T06:52:59.983Z,1552
2016-06-21T06:54:00.635Z,1564
2016-06-21T06:54:59.966Z,1584
2016-06-21T06:55:59.950Z,1596
2016-06-21T06:57:00.586Z,1612
2016-06-21T06:57:59.927Z,1628
2016-06-21T06:59:00.543Z,1644
2016-06-21T06:59:59.896Z,1660
2016-06-21T07:00:59.877Z,1676
2016-06-21T07:02:00.515Z,1692
2016-06-21T07:03:00.525Z,1708
2016-06-21T07:03:59.837Z,1728
2016-06-21T07:04:59.831Z,1744
2016-06-21T07:06:00.470Z,1760
2016-06-21T07:06:59.801Z,1776
2016-06-21T07:08:00.451Z,1796
2016-06-21T07:08:59.786Z,1812
2016-06-21T07:10:00.393Z,1828
2016-06-21T07:11:00.386Z,1840
2016-06-21T07:12:00.369Z,1860
2016-06-21T07:13:00.368Z,1876
2016-06-21T07:13:59.691Z,1888
2016-06-21T07:14:59.691Z,1904
2016-06-21T07:15:59.690Z,1916
2016-06-21T07:17:00.291Z,1932
2016-06-21T07:17:59.631Z,1940
2016-06-21T07:19:00.285Z,1952
2016-06-21T07:20:00.259Z,1960
2016-06-21T07:21:00.245Z,1972
2016-06-21T07:22:00.239Z,1980
2016-06-21T07:23:00.218Z,1992
2016-06-21T07:24:00.365Z,2004
2016-06-21T07:24:59.551Z,2012
2016-06-21T07:25:59.519Z,2024
2016-06-21T07:27:00.162Z,2040
2016-06-21T07:27:59.518Z,2048
2016-06-21T07:28:59.601Z,2056
2016-06-21T07:30:00.146Z,2068
2016-06-21T07:31:00.121Z,2080
2016-06-21T07:32:00.089Z,2092
2016-06-21T07:32:59.451Z,2096
2016-06-21T07:33:58.791Z,2104
2016-06-21T07:34:59.416Z,2116
2016-06-21T07:36:00.066Z,2148
2016-06-21T07:36:59.414Z,2148
2016-06-21T07:37:58.736Z,2148
2016-06-21T07:38:59.374Z,2164
2016-06-21T07:39:59.346Z,2172
2016-06-21T07:40:59.342Z,2184
2016-06-21T07:41:59.354Z,2196
2016-06-21T07:43:59.302Z,2224
2016-06-21T07:44:59.931Z,2232
2016-06-21T07:45:59.905Z,2244
2016-06-21T07:46:58.619Z,2252
2016-06-21T07:47:58.575Z,2264
2016-06-21T07:48:59.217Z,2276
2016-06-21T07:49:59.207Z,2284
2016-06-21T07:50:59.834Z,2296
2016-06-21T07:51:58.517Z,2312
2016-06-21T07:52:59.161Z,2328
2016-06-21T07:53:58.514Z,2348
2016-06-21T07:54:59.129Z,2352
2016-06-21T07:55:59.118Z,2364
2016-06-21T07:56:58.472Z,2380
2016-06-21T07:57:59.741Z,2396
2016-06-21T07:58:58.461Z,2412
2016-06-21T07:59:58.442Z,2428
2016-06-21T08:00:59.052Z,2444
2016-06-21T08:01:59.674Z,2456
2016-06-21T08:02:59.684Z,2472
2016-06-21T08:03:59.022Z,2492
2016-06-21T08:04:59.008Z,2504
2016-06-21T08:05:58.998Z,2516
2016-06-21T08:06:58.989Z,2532
2016-06-21T08:07:59.600Z,2544
2016-06-21T08:08:58.933Z,2560
2016-06-21T08:09:59.570Z,2596
2016-06-21T08:10:58.932Z,2588
2016-06-21T08:11:59.573Z,2604
2016-06-21T08:12:58.885Z,2624
2016-06-21T08:13:59.512Z,2636
2016-06-21T08:14:58.253Z,2648
2016-06-21T08:15:58.205Z,2664
2016-06-21T08:16:58.845Z,2680
2016-06-21T08:17:58.851Z,2696
2016-06-21T08:18:59.451Z,2712
2016-06-21T08:19:58.162Z,2724
2016-06-21T08:20:59.445Z,2744
2016-06-21T08:21:59.421Z,2756
2016-06-21T08:22:59.402Z,2772
2016-06-21T08:23:58.125Z,2792
2016-06-21T08:24:58.764Z,2804
2016-06-21T08:25:59.396Z,2820
2016-06-21T08:26:59.354Z,2836
2016-06-21T08:27:59.363Z,2848
2016-06-21T08:28:59.345Z,2860
2016-06-21T08:29:59.308Z,2872
2016-06-21T08:30:59.300Z,2888
2016-06-21T08:31:58.012Z,2904
2016-06-21T08:32:59.272Z,2916
2016-06-21T08:33:59.265Z,2928
2016-06-21T08:34:59.255Z,2944
2016-06-21T08:35:58.638Z,2956
2016-06-21T08:36:59.227Z,2972
2016-06-21T08:37:57.931Z,2980
2016-06-21T08:38:59.195Z,2996
2016-06-21T08:39:58.560Z,3008
2016-06-21T08:40:58.519Z,3016
2016-06-21T08:41:58.518Z,3032
2016-06-21T08:42:58.517Z,3040
2016-06-21T08:43:59.157Z,3056
2016-06-21T08:44:59.138Z,3064
2016-06-21T08:45:58.481Z,3072
2016-06-21T08:46:57.858Z,3108
2016-06-21T08:47:57.804Z,3112
2016-06-21T08:48:59.081Z,3128
2016-06-21T08:49:57.783Z,3144
2016-06-21T08:50:58.450Z,3156
2016-06-21T08:51:58.394Z,3164
2016-06-21T08:52:59.024Z,3188
2016-06-21T08:53:59.022Z,3192
2016-06-21T08:54:58.355Z,3204
2016-06-21T08:55:58.347Z,3228
2016-06-21T08:56:58.327Z,3240
2016-06-21T08:57:58.047Z,3252
2016-06-21T08:58:58.882Z,3264
2016-06-21T08:59:58.953Z,3272
2016-06-21T09:00:59.057Z,3280
2016-06-21T09:01:58.902Z,3300
2016-06-21T09:02:58.949Z,3308
2016-06-21T09:03:58.878Z,3324
2016-06-21T09:04:59.016Z,3336
2016-06-21T09:05:57.605Z,3344
2016-06-21T09:06:58.418Z,3352
2016-06-21T09:07:57.123Z,3360
2016-06-21T09:08:58.883Z,3372
2016-06-21T09:09:58.262Z,3376
2016-06-21T09:10:57.518Z,3384
2016-06-21T09:11:58.307Z,3400
2016-06-21T09:12:58.816Z,3420
2016-06-21T09:13:58.874Z,3436
2016-06-21T09:14:57.522Z,3444
2016-06-21T09:15:58.754Z,3468
2016-06-21T09:16:58.155Z,3480
2016-06-21T09:17:58.109Z,3488
2016-06-21T09:18:58.071Z,3500
2016-06-21T09:19:59.003Z,3528
2016-06-21T09:20:58.671Z,3552
2016-06-21T09:21:58.664Z,3568
2016-06-21T09:22:58.294Z,3584
2016-06-21T09:23:57.372Z,3592
2016-06-21T09:24:58.720Z,3608
2016-06-21T09:25:58.652Z,3628
2016-06-21T09:26:58.631Z,3640
2016-06-21T09:27:58.596Z,3652
2016-06-21T09:28:58.029Z,3656
2016-06-21T09:29:58.370Z,3672
2016-06-21T09:30:57.266Z,3692
2016-06-21T09:31:58.599Z,3712
2016-06-21T09:32:57.906Z,3740
2016-06-21T09:33:57.882Z,3752
2016-06-21T09:34:58.529Z,3776
2016-06-21T09:35:57.862Z,3784
2016-06-21T09:36:58.541Z,3796
2016-06-21T09:37:57.191Z,3804
2016-06-21T09:38:58.833Z,3828
2016-06-21T09:39:58.563Z,3848
2016-06-21T09:40:57.167Z,3864
2016-06-21T09:41:57.243Z,3880
2016-06-21T09:42:58.109Z,3892
2016-06-21T09:43:58.451Z,3900
2016-06-21T09:44:58.420Z,3924
2016-06-21T09:45:58.684Z,3952
2016-06-21T09:46:57.779Z,3972
2016-06-21T09:47:57.133Z,3992
2016-06-21T09:48:58.353Z,4024
2016-06-21T09:49:57.829Z,4044
2016-06-21T09:50:58.381Z,4072
2016-06-21T09:51:58.469Z,4088
2016-06-21T09:52:58.983Z,4120
2016-06-21T09:53:58.424Z,4140
2016-06-21T09:54:56.363Z,4168
2016-06-21T09:55:57.674Z,4200
2016-06-21T09:56:57.647Z,4236
2016-06-21T09:58:00.401Z,4260
2016-06-21T09:58:57.555Z,4288
2016-06-21T09:59:57.581Z,4316
2016-06-21T10:00:58.107Z,4352
2016-06-21T10:01:58.247Z,4384
2016-06-21T10:02:58.199Z,4412
2016-06-21T10:03:58.163Z,4452
2016-06-21T10:04:57.513Z,4480
2016-06-21T10:05:58.139Z,4516
2016-06-21T10:06:57.501Z,4540
2016-06-21T10:07:58.119Z,4584
2016-06-21T10:08:56.851Z,4624
2016-06-21T10:09:58.113Z,4656
2016-06-21T10:10:58.101Z,4716
2016-06-21T10:11:58.088Z,4772
2016-06-21T10:12:57.413Z,4812
2016-06-21T10:13:58.160Z,4864
2016-06-21T10:14:58.075Z,4912
2016-06-21T10:15:57.370Z,4960
2016-06-21T10:16:58.012Z,5016
2016-06-21T10:17:57.384Z,5080
2016-06-21T10:18:56.726Z,5144
2016-06-21T10:19:56.711Z,5208
2016-06-21T10:20:57.972Z,5268
2016-06-21T10:21:57.969Z,5332
2016-06-21T10:22:56.662Z,5408
2016-06-21T10:23:57.327Z,5496
2016-06-21T10:24:57.963Z,5560
2016-06-21T10:25:57.941Z,5668
2016-06-21T10:26:57.947Z,5736
2016-06-21T10:27:57.367Z,5824
2016-06-21T10:28:57.251Z,5928
2016-06-21T10:29:57.237Z,6032
2016-06-21T10:30:57.226Z,6120
2016-06-21T10:31:57.869Z,6204
2016-06-21T10:32:57.833Z,6292
2016-06-21T10:33:57.866Z,6376
2016-06-21T10:34:57.791Z,6448
2016-06-21T10:35:57.154Z,6496
2016-06-21T10:36:57.218Z,6524
2016-06-21T10:37:57.777Z,6556
2016-06-21T10:38:57.813Z,6584
2016-06-21T10:39:57.130Z,6608
2016-06-21T10:40:57.743Z,6624
2016-06-21T10:41:57.098Z,6636
2016-06-21T10:42:57.783Z,6664
2016-06-21T10:43:57.132Z,6668
2016-06-21T10:44:57.716Z,6688
2016-06-21T10:45:57.038Z,6700
2016-06-21T10:46:57.033Z,6712
2016-06-21T10:47:57.032Z,6724
2016-06-21T10:48:57.712Z,6744
2016-06-21T10:49:56.395Z,6752
2016-06-21T10:50:57.667Z,6740
2016-06-21T10:51:56.979Z,6748
2016-06-21T10:52:55.713Z,6760
2016-06-21T10:53:57.610Z,6752
2016-06-21T10:54:56.326Z,6768
2016-06-21T10:55:56.279Z,6768
2016-06-21T10:56:57.574Z,6768
2016-06-21T10:57:57.569Z,6776
2016-06-21T10:58:56.917Z,6764
2016-06-21T10:59:56.928Z,6760
2016-06-21T11:00:57.226Z,6772
2016-06-21T11:01:56.228Z,6776
2016-06-21T11:02:56.236Z,6760
2016-06-21T11:03:56.220Z,6752
2016-06-21T11:04:55.561Z,6736
2016-06-21T11:05:57.486Z,6744
2016-06-21T11:06:56.177Z,6728
2016-06-21T11:07:56.810Z,6740
2016-06-21T11:08:57.448Z,6716
2016-06-21T11:09:56.793Z,6712
2016-06-21T11:10:56.778Z,6692
2016-06-21T11:11:56.747Z,6684
2016-06-21T11:12:57.375Z,6664
2016-06-21T11:13:56.121Z,6656
2016-06-21T11:14:57.372Z,6652
2016-06-21T11:15:56.723Z,6620
2016-06-21T11:16:57.376Z,6624
2016-06-21T11:17:56.701Z,6608
2016-06-21T11:18:55.455Z,6592
2016-06-21T11:19:57.336Z,6600
2016-06-21T11:20:56.706Z,6576
2016-06-21T11:21:56.696Z,6576
2016-06-21T11:22:56.650Z,6544
2016-06-21T11:23:57.285Z,6540
2016-06-21T11:24:57.296Z,6536
2016-06-21T11:25:56.627Z,6508
2016-06-21T11:26:57.727Z,6476
2016-06-21T11:27:56.621Z,6488
2016-06-21T11:28:57.343Z,6480
2016-06-21T11:29:57.249Z,6476
2016-06-21T11:30:55.959Z,6504
2016-06-21T11:31:55.923Z,6576
2016-06-21T11:32:56.564Z,6784
2016-06-21T11:33:57.173Z,19200
2016-06-21T11:34:57.183Z,47680
2016-06-21T11:35:56.536Z,51584
2016-06-21T11:36:57.165Z,43168
2016-06-21T11:37:57.169Z,31232
2016-06-21T11:38:56.505Z,16580
2016-06-21T11:39:56.512Z,27744
2016-06-21T11:40:57.115Z,62272
2016-06-21T11:41:57.117Z,104928
2016-06-21T11:42:55.842Z,116832
2016-06-21T11:43:57.089Z,117408
2016-06-21T11:44:56.438Z,110016
2016-06-21T11:45:55.822Z,106496
2016-06-21T11:46:56.457Z,109696
2016-06-21T11:47:57.073Z,114016
2016-06-21T11:48:57.060Z,110720
2016-06-21T11:49:56.704Z,110848
2016-06-21T11:50:56.423Z,113152
2016-06-21T11:51:56.423Z,111136
2016-06-21T11:52:57.044Z,109888
2016-06-21T11:53:57.286Z,111456
2016-06-21T11:54:56.415Z,112096
2016-06-21T11:55:57.050Z,114880
2016-06-21T11:56:57.057Z,116640
2016-06-21T11:57:56.395Z,108448
2016-06-21T11:58:57.075Z,105280
2016-06-21T11:59:57.084Z,112864
2016-06-21T12:00:56.401Z,114912
2016-06-21T12:01:57.053Z,113312
2016-06-21T12:02:57.052Z,109600
2016-06-21T12:03:57.030Z,108352
2016-06-21T12:04:55.821Z,107488
2016-06-21T12:05:56.403Z,110272
2016-06-21T12:06:57.029Z,106848
2016-06-21T12:07:57.055Z,93088
2016-06-21T12:08:56.406Z,70944
2016-06-21T12:09:55.778Z,43424
2016-06-21T12:10:57.040Z,24544
2016-06-21T12:11:56.409Z,18688
2016-06-21T12:12:56.454Z,17120
2016-06-21T12:13:57.052Z,16524
2016-06-21T12:14:55.786Z,16232
2016-06-21T12:15:56.404Z,16060
2016-06-21T12:16:57.040Z,15916
2016-06-21T12:17:57.042Z,15652
2016-06-21T12:18:56.417Z,15696
2016-06-21T12:19:56.428Z,15536
2016-06-21T12:20:55.767Z,15728
2016-06-21T12:21:56.405Z,16448
2016-06-21T12:22:56.391Z,18624
2016-06-21T12:23:56.407Z,23936
2016-06-21T12:24:57.059Z,26720
2016-06-21T12:25:56.402Z,22592
2016-06-21T12:26:57.040Z,17952
2016-06-21T12:27:57.039Z,16612
2016-06-21T12:28:56.406Z,16188
2016-06-21T12:29:57.049Z,16028
2016-06-21T12:30:57.037Z,15912
2016-06-21T12:31:57.082Z,16192
2016-06-21T12:32:56.427Z,15996
2016-06-21T12:33:56.428Z,15276
2016-06-21T12:34:56.415Z,15064
2016-06-21T12:35:57.057Z,15032
2016-06-21T12:36:56.406Z,15124
2016-06-21T12:37:57.101Z,15116
2016-06-21T12:38:57.067Z,15156
2016-06-21T12:39:56.407Z,15220
2016-06-21T12:40:57.042Z,15292
2016-06-21T12:41:57.177Z,15424
2016-06-21T12:42:56.434Z,15612
2016-06-21T12:43:57.063Z,15792
2016-06-21T12:44:57.076Z,15912
2016-06-21T12:45:56.422Z,15992
2016-06-21T12:46:56.423Z,16208
2016-06-21T12:47:57.068Z,16436
2016-06-21T12:48:56.445Z,16740
2016-06-21T12:49:56.465Z,17056
2016-06-21T12:50:57.074Z,17344
2016-06-21T12:51:56.453Z,17728
2016-06-21T12:52:56.437Z,18080
2016-06-21T12:53:57.051Z,18464
2016-06-21T12:54:56.430Z,19008
2016-06-21T12:55:57.109Z,20096
2016-06-21T12:56:55.786Z,21984
2016-06-21T12:57:56.457Z,31200
2016-06-21T12:58:56.467Z,47200
2016-06-21T12:59:57.075Z,68544
2016-06-21T13:00:57.053Z,93376
2016-06-21T13:01:57.083Z,110112
2016-06-21T13:02:56.438Z,109888
2016-06-21T13:03:57.069Z,107616
2016-06-21T13:04:56.450Z,107456
2016-06-21T13:05:57.109Z,106848
2016-06-21T13:06:56.476Z,104192
2016-06-21T13:07:55.805Z,100800
2016-06-21T13:08:56.466Z,99776
2016-06-21T13:09:57.059Z,104224
2016-06-21T13:10:55.802Z,104800
2016-06-21T13:11:57.080Z,106144
2016-06-21T13:12:57.077Z,108768
2016-06-21T13:13:55.798Z,109056
2016-06-21T13:14:57.124Z,108704
2016-06-21T13:15:57.071Z,108672
2016-06-21T13:16:57.087Z,107968
2016-06-21T13:17:57.094Z,102688
2016-06-21T13:18:57.071Z,101824
2016-06-21T13:19:56.458Z,106112
2016-06-21T13:20:55.816Z,111872
2016-06-21T13:21:56.456Z,110528
2016-06-21T13:22:57.118Z,110368
2016-06-21T13:23:56.501Z,109216
2016-06-21T13:24:57.090Z,102752
2016-06-21T13:25:57.099Z,104576
2016-06-21T13:26:56.479Z,105888
2016-06-21T13:27:57.109Z,101152
2016-06-21T13:28:56.486Z,98912
2016-06-21T13:29:57.119Z,102112
2016-06-21T13:30:56.495Z,107168
2016-06-21T13:31:57.146Z,106368
2016-06-21T13:32:57.148Z,103328
2016-06-21T13:33:56.478Z,102528
2016-06-21T13:34:57.152Z,103552
2016-06-21T13:35:56.723Z,107936
2016-06-21T13:36:56.481Z,106368
2016-06-21T13:37:55.864Z,104096
2016-06-21T13:38:56.505Z,110432
2016-06-21T13:39:57.176Z,115808
2016-06-21T13:40:56.523Z,112352
2016-06-21T13:41:55.942Z,111840
2016-06-21T13:42:56.519Z,111552
2016-06-21T13:43:57.148Z,113216
2016-06-21T13:44:57.146Z,106688